sensor_id;sensor_type;location;lat;lon;timestamp;pressure;altitude;pressure_sealevel;temperature;humidity
21300;BME280;10809;49.476;11.016;2022-12-04T00:02:03;98147.13;;;1.69;71.62
21300;BME280;10809;49.476;11.016;2022-12-04T00:04:36;98146.22;;;1.70;71.66
21300;BME280;10809;49.476;11.016;2022-12-04T00:07:09;98133.16;;;1.70;71.88
21300;BME280;10809;49.476;11.016;2022-12-04T00:09:39;98132.28;;;1.71;71.74
21300;BME280;10809;49.476;11.016;2022-12-04T00:12:09;98114.03;;;1.70;71.87
21300;BME280;10809;49.476;11.016;2022-12-04T00:14:40;98107.97;;;1.69;71.67
21300;BME280;10809;49.476;11.016;2022-12-04T00:17:10;98107.97;;;1.69;71.21
21300;BME280;10809;49.476;11.016;2022-12-04T00:19:40;98101.91;;;1.69;71.87
21300;BME280;10809;49.476;11.016;2022-12-04T00:22:11;98102.81;;;1.68;71.52
21300;BME280;10809;49.476;11.016;2022-12-04T00:24:41;98102.84;;;1.66;71.80
21300;BME280;10809;49.476;11.016;2022-12-04T00:27:11;98100.28;;;1.65;71.56
21300;BME280;10809;49.476;11.016;2022-12-04T00:29:42;98108.09;;;1.65;72.02
21300;BME280;10809;49.476;11.016;2022-12-04T00:32:12;98108.09;;;1.65;71.89
21300;BME280;10809;49.476;11.016;2022-12-04T00:34:43;98104.59;;;1.66;72.12
21300;BME280;10809;49.476;11.016;2022-12-04T00:37:13;98094.16;;;1.66;71.99
21300;BME280;10809;49.476;11.016;2022-12-04T00:39:43;98088.06;;;1.65;71.83
21300;BME280;10809;49.476;11.016;2022-12-04T00:42:13;98101.97;;;1.66;71.98
21300;BME280;10809;49.476;11.016;2022-12-04T00:44:44;98109.75;;;1.67;72.11
21300;BME280;10809;49.476;11.016;2022-12-04T00:47:14;98095.84;;;1.67;71.98
21300;BME280;10809;49.476;11.016;2022-12-04T00:49:45;98094.06;;;1.69;72.33
21300;BME280;10809;49.476;11.016;2022-12-04T00:52:15;98100.13;;;1.71;72.30
21300;BME280;10809;49.476;11.016;2022-12-04T00:54:45;98092.28;;;1.71;72.22
21300;BME280;10809;49.476;11.016;2022-12-04T00:57:16;98089.66;;;1.72;72.07
21300;BME280;10809;49.476;11.016;2022-12-04T00:59:46;98079.16;;;1.74;72.65
21300;BME280;10809;49.476;11.016;2022-12-04T01:02:16;98066.09;;;1.75;72.52
21300;BME280;10809;49.476;11.016;2022-12-04T01:04:47;98063.44;;;1.77;72.27
21300;BME280;10809;49.476;11.016;2022-12-04T01:07:17;98073.88;;;1.77;72.47
21300;BME280;10809;49.476;11.016;2022-12-04T01:09:47;98076.47;;;1.77;71.62
21300;BME280;10809;49.476;11.016;2022-12-04T01:12:18;98072.97;;;1.78;72.42
21300;BME280;10809;49.476;11.016;2022-12-04T01:14:48;98066.00;;;1.78;72.38
21300;BME280;10809;49.476;11.016;2022-12-04T01:17:19;98070.31;;;1.79;72.37
21300;BME280;10809;49.476;11.016;2022-12-04T01:19:49;98079.03;;;1.80;72.62
21300;BME280;10809;49.476;11.016;2022-12-04T01:22:19;98080.72;;;1.81;72.39
21300;BME280;10809;49.476;11.016;2022-12-04T01:24:54;98066.78;;;1.82;71.88
21300;BME280;10809;49.476;11.016;2022-12-04T01:27:24;98074.56;;;1.83;72.55
21300;BME280;10809;49.476;11.016;2022-12-04T01:29:55;98070.22;;;1.84;72.30
21300;BME280;10809;49.476;11.016;2022-12-04T01:32:25;98071.91;;;1.85;72.66
21300;BME280;10809;49.476;11.016;2022-12-04T01:34:55;98069.31;;;1.85;72.52
21300;BME280;10809;49.476;11.016;2022-12-04T01:37:29;98073.63;;;1.87;72.13
21300;BME280;10809;49.476;11.016;2022-12-04T01:39:59;98079.69;;;1.86;72.34
21300;BME280;10809;49.476;11.016;2022-12-04T01:42:30;98084.00;;;1.89;72.46
21300;BME280;10809;49.476;11.016;2022-12-04T01:50:43;98068.28;;;1.92;72.13
21300;BME280;10809;49.476;11.016;2022-12-04T01:53:14;98062.19;;;1.91;72.28
21300;BME280;10809;49.476;11.016;2022-12-04T01:55:46;98060.41;;;1.93;72.65
21300;BME280;10809;49.476;11.016;2022-12-04T01:58:20;98059.53;;;1.93;71.95
21300;BME280;10809;49.476;11.016;2022-12-04T02:00:55;98056.06;;;1.92;72.14
21300;BME280;10809;49.476;11.016;2022-12-04T02:03:28;98064.72;;;1.94;72.15
21300;BME280;10809;49.476;11.016;2022-12-04T02:05:58;98057.78;;;1.93;72.77
21300;BME280;10809;49.476;11.016;2022-12-04T02:08:29;98061.25;;;1.94;72.17
21300;BME280;10809;49.476;11.016;2022-12-04T02:11:14;98060.38;;;1.95;72.62
21300;BME280;10809;49.476;11.016;2022-12-04T02:19:50;98070.78;;;1.96;72.34
21300;BME280;10809;49.476;11.016;2022-12-04T02:28:22;98078.53;;;1.99;72.33
21300;BME280;10809;49.476;11.016;2022-12-04T02:30:57;98075.00;;;2.00;72.32
21300;BME280;10809;49.476;11.016;2022-12-04T02:33:38;98062.81;;;2.01;72.96
21300;BME280;10809;49.476;11.016;2022-12-04T02:36:21;98069.75;;;2.02;72.31
21300;BME280;10809;49.476;11.016;2022-12-04T02:39:04;98074.06;;;2.03;72.69
21300;BME280;10809;49.476;11.016;2022-12-04T02:41:41;98064.53;;;2.02;72.31
21300;BME280;10809;49.476;11.016;2022-12-04T02:44:21;98066.22;;;2.03;72.69
21300;BME280;10809;49.476;11.016;2022-12-04T02:46:57;98057.53;;;2.04;72.67
21300;BME280;10809;49.476;11.016;2022-12-04T02:49:36;98064.44;;;2.05;72.69
21300;BME280;10809;49.476;11.016;2022-12-04T02:52:12;98050.47;;;2.06;72.50
21300;BME280;10809;49.476;11.016;2022-12-04T02:54:51;98054.81;;;2.07;72.12
21300;BME280;10809;49.476;11.016;2022-12-04T02:57:27;98047.00;;;2.07;72.88
21300;BME280;10809;49.476;11.016;2022-12-04T03:00:00;98053.91;;;2.08;72.87
21300;BME280;10809;49.476;11.016;2022-12-04T03:03:15;98049.56;;;2.08;72.60
21300;BME280;10809;49.476;11.016;2022-12-04T03:06:02;98050.34;;;2.10;72.41
21300;BME280;10809;49.476;11.016;2022-12-04T03:08:41;98055.59;;;2.10;73.03
21300;BME280;10809;49.476;11.016;2022-12-04T03:11:13;98056.44;;;2.11;72.42
21300;BME280;10809;49.476;11.016;2022-12-04T03:13:48;98046.88;;;2.11;72.77
21300;BME280;10809;49.476;11.016;2022-12-04T03:16:24;98045.09;;;2.12;72.51
21300;BME280;10809;49.476;11.016;2022-12-04T03:19:06;98032.91;;;2.12;72.92
21300;BME280;10809;49.476;11.016;2022-12-04T03:21:41;98020.72;;;2.13;72.49
21300;BME280;10809;49.476;11.016;2022-12-04T03:26:58;98021.59;;;2.13;72.42
21300;BME280;10809;49.476;11.016;2022-12-04T03:29:32;98025.03;;;2.14;72.24
21300;BME280;10809;49.476;11.016;2022-12-04T03:32:13;98022.41;;;2.14;72.54
21300;BME280;10809;49.476;11.016;2022-12-04T03:34:58;98022.41;;;2.14;72.84
21300;BME280;10809;49.476;11.016;2022-12-04T03:37:53;98018.94;;;2.15;72.85
21300;BME280;10809;49.476;11.016;2022-12-04T03:40:37;98019.81;;;2.14;72.47
21300;BME280;10809;49.476;11.016;2022-12-04T03:43:25;98011.16;;;2.13;72.32
21300;BME280;10809;49.476;11.016;2022-12-04T03:45:57;98004.16;;;2.14;72.32
21300;BME280;10809;49.476;11.016;2022-12-04T03:48:37;98003.31;;;2.13;72.35
21300;BME280;10809;49.476;11.016;2022-12-04T03:51:24;98014.59;;;2.14;72.75
21300;BME280;10809;49.476;11.016;2022-12-04T03:54:06;98011.09;;;2.15;72.29
21300;BME280;10809;49.476;11.016;2022-12-04T03:56:42;98006.72;;;2.15;73.05
21300;BME280;10809;49.476;11.016;2022-12-04T03:59:52;97995.44;;;2.15;72.58
21300;BME280;10809;49.476;11.016;2022-12-04T04:02:27;97997.19;;;2.14;72.40
21300;BME280;10809;49.476;11.016;2022-12-04T04:05:05;98004.97;;;2.16;72.49
21300;BME280;10809;49.476;11.016;2022-12-04T04:10:15;98002.31;;;2.17;73.00
21300;BME280;10809;49.476;11.016;2022-12-04T04:12:50;97991.00;;;2.17;72.74
21300;BME280;10809;49.476;11.016;2022-12-04T04:15:54;97987.53;;;2.18;72.35
21300;BME280;10809;49.476;11.016;2022-12-04T04:18:44;97993.53;;;2.20;72.69
21300;BME280;10809;49.476;11.016;2022-12-04T04:21:36;97984.00;;;2.19;72.63
21300;BME280;10809;49.476;11.016;2022-12-04T04:24:31;97989.22;;;2.19;72.71
21300;BME280;10809;49.476;11.016;2022-12-04T04:27:03;97992.75;;;2.18;72.64
21300;BME280;10809;49.476;11.016;2022-12-04T04:29:34;97984.00;;;2.19;73.00
21300;BME280;10809;49.476;11.016;2022-12-04T04:32:11;97973.56;;;2.19;72.52
21300;BME280;10809;49.476;11.016;2022-12-04T04:37:45;97977.06;;;2.18;72.76
21300;BME280;10809;49.476;11.016;2022-12-04T04:40:26;97984.00;;;2.19;72.82
21300;BME280;10809;49.476;11.016;2022-12-04T04:45:57;97990.09;;;2.19;72.53
21300;BME280;10809;49.476;11.016;2022-12-04T04:48:33;97992.75;;;2.18;72.53
21300;BME280;10809;49.476;11.016;2022-12-04T04:51:05;97985.78;;;2.17;72.51
21300;BME280;10809;49.476;11.016;2022-12-04T04:53:40;97997.09;;;2.17;72.69
21300;BME280;10809;49.476;11.016;2022-12-04T04:56:12;97996.22;;;2.17;73.08
21300;BME280;10809;49.476;11.016;2022-12-04T04:58:42;98008.38;;;2.19;72.76
21300;BME280;10809;49.476;11.016;2022-12-04T05:01:18;98004.88;;;2.19;72.24
21300;BME280;10809;49.476;11.016;2022-12-04T05:03:49;98010.09;;;2.19;72.71
21300;BME280;10809;49.476;11.016;2022-12-04T05:06:20;98022.25;;;2.20;72.92
21300;BME280;10809;49.476;11.016;2022-12-04T05:08:50;98013.53;;;2.21;72.45
21300;BME280;10809;49.476;11.016;2022-12-04T05:11:21;98020.47;;;2.22;72.94
21300;BME280;10809;49.476;11.016;2022-12-04T05:13:51;98015.25;;;2.22;72.63
21300;BME280;10809;49.476;11.016;2022-12-04T05:16:22;98018.72;;;2.22;72.94
21300;BME280;10809;49.476;11.016;2022-12-04T05:18:52;98023.91;;;2.24;72.44
21300;BME280;10809;49.476;11.016;2022-12-04T05:21:42;98020.44;;;2.23;73.12
21300;BME280;10809;49.476;11.016;2022-12-04T05:24:12;98017.78;;;2.25;72.75
21300;BME280;10809;49.476;11.016;2022-12-04T05:26:43;98013.41;;;2.25;73.05
21300;BME280;10809;49.476;11.016;2022-12-04T05:29:13;98016.00;;;2.27;73.10
21300;BME280;10809;49.476;11.016;2022-12-04T05:31:43;98014.25;;;2.26;73.06
21300;BME280;10809;49.476;11.016;2022-12-04T05:34:14;98016.00;;;2.27;72.71
21300;BME280;10809;49.476;11.016;2022-12-04T05:36:44;98019.47;;;2.26;72.55
21300;BME280;10809;49.476;11.016;2022-12-04T05:39:14;98023.81;;;2.27;73.00
21300;BME280;10809;49.476;11.016;2022-12-04T05:41:45;98033.34;;;2.28;72.78
21300;BME280;10809;49.476;11.016;2022-12-04T05:44:16;98030.75;;;2.28;72.67
21300;BME280;10809;49.476;11.016;2022-12-04T05:46:47;98029.84;;;2.29;73.16
21300;BME280;10809;49.476;11.016;2022-12-04T05:49:17;98022.00;;;2.29;72.66
21300;BME280;10809;49.476;11.016;2022-12-04T05:51:51;98015.94;;;2.28;72.72
21300;BME280;10809;49.476;11.016;2022-12-04T05:54:22;98020.25;;;2.29;72.86
21300;BME280;10809;49.476;11.016;2022-12-04T05:56:52;98023.78;;;2.28;72.94
21300;BME280;10809;49.476;11.016;2022-12-04T05:59:23;98022.91;;;2.28;72.91
21300;BME280;10809;49.476;11.016;2022-12-04T06:01:53;98026.41;;;2.28;72.94
21300;BME280;10809;49.476;11.016;2022-12-04T06:04:23;98029.88;;;2.27;72.51
21300;BME280;10809;49.476;11.016;2022-12-04T06:06:54;98034.28;;;2.27;72.47
21300;BME280;10809;49.476;11.016;2022-12-04T06:09:24;98038.59;;;2.28;73.20
21300;BME280;10809;49.476;11.016;2022-12-04T06:11:58;98036.84;;;2.28;72.95
21300;BME280;10809;49.476;11.016;2022-12-04T06:14:28;98038.59;;;2.28;73.45
21300;BME280;10809;49.476;11.016;2022-12-04T06:16:59;98046.38;;;2.29;72.53
21300;BME280;10809;49.476;11.016;2022-12-04T06:19:29;98042.91;;;2.29;72.65
21300;BME280;10809;49.476;11.016;2022-12-04T06:21:59;98035.94;;;2.29;72.79
21300;BME280;10809;49.476;11.016;2022-12-04T06:24:30;98038.53;;;2.29;72.72
21300;BME280;10809;49.476;11.016;2022-12-04T06:27:00;98040.28;;;2.29;72.86
21300;BME280;10809;49.476;11.016;2022-12-04T06:29:31;98049.84;;;2.30;73.02
21300;BME280;10809;49.476;11.016;2022-12-04T06:32:01;98043.75;;;2.29;72.48
21300;BME280;10809;49.476;11.016;2022-12-04T06:34:32;98036.84;;;2.28;72.60
21300;BME280;10809;49.476;11.016;2022-12-04T06:37:02;98032.44;;;2.29;72.64
21300;BME280;10809;49.476;11.016;2022-12-04T06:39:33;98034.22;;;2.28;72.46
21300;BME280;10809;49.476;11.016;2022-12-04T06:42:03;98030.75;;;2.28;73.36
21300;BME280;10809;49.476;11.016;2022-12-04T06:44:33;98035.97;;;2.28;72.63
21300;BME280;10809;49.476;11.016;2022-12-04T06:47:04;98035.97;;;2.28;72.67
21300;BME280;10809;49.476;11.016;2022-12-04T06:49:34;98041.19;;;2.28;73.02
21300;BME280;10809;49.476;11.016;2022-12-04T06:52:05;98037.69;;;2.29;72.51
21300;BME280;10809;49.476;11.016;2022-12-04T06:54:35;98041.19;;;2.28;72.90
21300;BME280;10809;49.476;11.016;2022-12-04T06:57:06;98044.63;;;2.30;72.66
21300;BME280;10809;49.476;11.016;2022-12-04T06:59:36;98051.59;;;2.29;72.97
21300;BME280;10809;49.476;11.016;2022-12-04T07:02:08;98053.31;;;2.30;72.99
21300;BME280;10809;49.476;11.016;2022-12-04T07:04:38;98054.16;;;2.31;72.71
21300;BME280;10809;49.476;11.016;2022-12-04T07:07:09;98053.25;;;2.32;73.00
21300;BME280;10809;49.476;11.016;2022-12-04T07:09:39;98048.03;;;2.32;72.99
21300;BME280;10809;49.476;11.016;2022-12-04T07:12:09;98042.78;;;2.33;72.69
21300;BME280;10809;49.476;11.016;2022-12-04T07:14:40;98039.31;;;2.33;73.33
21300;BME280;10809;49.476;11.016;2022-12-04T07:17:10;98037.56;;;2.33;73.13
21300;BME280;10809;49.476;11.016;2022-12-04T07:19:40;98018.44;;;2.33;72.75
21300;BME280;10809;49.476;11.016;2022-12-04T07:22:11;98021.91;;;2.32;72.76
21300;BME280;10809;49.476;11.016;2022-12-04T07:24:41;98010.59;;;2.33;72.84
21300;BME280;10809;49.476;11.016;2022-12-04T07:27:11;97998.41;;;2.32;72.72
21300;BME280;10809;49.476;11.016;2022-12-04T07:29:42;97990.56;;;2.32;72.85
21300;BME280;10809;49.476;11.016;2022-12-04T07:32:12;97989.75;;;2.31;73.12
21300;BME280;10809;49.476;11.016;2022-12-04T07:34:43;97994.97;;;2.31;72.91
21300;BME280;10809;49.476;11.016;2022-12-04T07:37:13;97999.31;;;2.31;72.69
21300;BME280;10809;49.476;11.016;2022-12-04T07:39:43;98001.94;;;2.31;73.17
21300;BME280;10809;49.476;11.016;2022-12-04T07:42:14;98002.84;;;2.30;73.32
21300;BME280;10809;49.476;11.016;2022-12-04T07:44:44;98001.94;;;2.31;73.29
21300;BME280;10809;49.476;11.016;2022-12-04T07:47:15;97995.00;;;2.30;73.16
21300;BME280;10809;49.476;11.016;2022-12-04T07:49:45;98001.94;;;2.31;73.38
21300;BME280;10809;49.476;11.016;2022-12-04T07:52:15;98002.75;;;2.33;72.88
21300;BME280;10809;49.476;11.016;2022-12-04T07:54:46;98003.59;;;2.33;73.57
21300;BME280;10809;49.476;11.016;2022-12-04T07:57:16;98003.50;;;2.36;73.38
21300;BME280;10809;49.476;11.016;2022-12-04T07:59:46;98016.53;;;2.38;73.25
21300;BME280;10809;49.476;11.016;2022-12-04T08:02:17;98017.31;;;2.41;73.63
21300;BME280;10809;49.476;11.016;2022-12-04T08:04:47;98014.66;;;2.43;73.67
21300;BME280;10809;49.476;11.016;2022-12-04T08:07:17;98006.78;;;2.44;73.40
21300;BME280;10809;49.476;11.016;2022-12-04T08:09:48;98005.88;;;2.45;73.44
21300;BME280;10809;49.476;11.016;2022-12-04T08:12:18;98015.44;;;2.46;72.97
21300;BME280;10809;49.476;11.016;2022-12-04T08:14:49;98018.00;;;2.48;73.51
21300;BME280;10809;49.476;11.016;2022-12-04T08:17:19;98021.41;;;2.50;73.74
21300;BME280;10809;49.476;11.016;2022-12-04T08:19:50;98020.56;;;2.49;73.83
21300;BME280;10809;49.476;11.016;2022-12-04T08:22:20;98016.19;;;2.50;73.22
21300;BME280;10809;49.476;11.016;2022-12-04T08:24:50;98016.13;;;2.51;73.42
21300;BME280;10809;49.476;11.016;2022-12-04T08:27:21;98011.72;;;2.53;73.51
21300;BME280;10809;49.476;11.016;2022-12-04T08:29:51;98018.66;;;2.54;73.05
21300;BME280;10809;49.476;11.016;2022-12-04T08:32:21;98011.69;;;2.55;73.71
21300;BME280;10809;49.476;11.016;2022-12-04T08:34:52;98014.25;;;2.57;73.31
21300;BME280;10809;49.476;11.016;2022-12-04T08:37:22;98016.88;;;2.57;73.62
21300;BME280;10809;49.476;11.016;2022-12-04T08:39:52;98019.44;;;2.58;73.73
21300;BME280;10809;49.476;11.016;2022-12-04T08:42:23;98010.66;;;2.61;73.75
21300;BME280;10809;49.476;11.016;2022-12-04T08:44:53;98002.81;;;2.61;73.40
21300;BME280;10809;49.476;11.016;2022-12-04T08:47:24;98008.84;;;2.63;73.61
21300;BME280;10809;49.476;11.016;2022-12-04T08:49:54;98018.38;;;2.65;73.75
21300;BME280;10809;49.476;11.016;2022-12-04T08:52:24;98025.28;;;2.68;73.29
21300;BME280;10809;49.476;11.016;2022-12-04T08:54:55;98023.47;;;2.70;73.54
21300;BME280;10809;49.476;11.016;2022-12-04T08:57:25;98019.91;;;2.72;74.29
21300;BME280;10809;49.476;11.016;2022-12-04T08:59:55;98024.13;;;2.76;73.74
21300;BME280;10809;49.476;11.016;2022-12-04T09:02:26;98011.03;;;2.78;74.20
21300;BME280;10809;49.476;11.016;2022-12-04T09:04:56;98021.38;;;2.82;73.79
21300;BME280;10809;49.476;11.016;2022-12-04T09:07:27;98020.44;;;2.85;73.58
21300;BME280;10809;49.476;11.016;2022-12-04T09:09:58;98022.09;;;2.87;74.00
21300;BME280;10809;49.476;11.016;2022-12-04T09:12:28;98029.84;;;2.90;74.14
21300;BME280;10809;49.476;11.016;2022-12-04T09:14:58;98041.13;;;2.92;73.89
21300;BME280;10809;49.476;11.016;2022-12-04T09:17:29;98039.25;;;2.96;73.82
21300;BME280;10809;49.476;11.016;2022-12-04T09:19:59;98037.47;;;2.98;74.13
21300;BME280;10809;49.476;11.016;2022-12-04T09:22:29;98030.44;;;3.00;73.79
21300;BME280;10809;49.476;11.016;2022-12-04T09:25:00;98021.63;;;3.02;73.62
21300;BME280;10809;49.476;11.016;2022-12-04T09:27:35;98021.59;;;3.04;73.67
21300;BME280;10809;49.476;11.016;2022-12-04T09:30:10;98011.91;;;3.07;73.50
21300;BME280;10809;49.476;11.016;2022-12-04T09:32:41;98014.53;;;3.07;73.77
21300;BME280;10809;49.476;11.016;2022-12-04T09:35:11;98010.06;;;3.09;73.86
21300;BME280;10809;49.476;11.016;2022-12-04T09:37:41;98007.41;;;3.11;73.52
21300;BME280;10809;49.476;11.016;2022-12-04T09:40:29;97999.47;;;3.14;73.73
21300;BME280;10809;49.476;11.016;2022-12-04T09:43:18;97997.72;;;3.14;73.37
21300;BME280;10809;49.476;11.016;2022-12-04T09:45:52;98002.91;;;3.16;73.25
21300;BME280;10809;49.476;11.016;2022-12-04T09:48:32;98003.78;;;3.16;73.38
21300;BME280;10809;49.476;11.016;2022-12-04T09:51:05;97988.91;;;3.18;73.67
21300;BME280;10809;49.476;11.016;2022-12-04T09:53:55;97982.75;;;3.19;73.70
21300;BME280;10809;49.476;11.016;2022-12-04T09:56:28;97968.75;;;3.20;73.71
21300;BME280;10809;49.476;11.016;2022-12-04T09:59:16;97971.28;;;3.23;73.27
21300;BME280;10809;49.476;11.016;2022-12-04T10:01:55;97977.38;;;3.24;73.43
21300;BME280;10809;49.476;11.016;2022-12-04T10:04:29;97976.47;;;3.25;73.41
21300;BME280;10809;49.476;11.016;2022-12-04T10:12:37;97984.06;;;3.32;73.50
21300;BME280;10809;49.476;11.016;2022-12-04T10:15:33;97963.91;;;3.36;73.84
21300;BME280;10809;49.476;11.016;2022-12-04T10:26:43;97968.72;;;3.48;73.32
21300;BME280;10809;49.476;11.016;2022-12-04T10:29:19;97959.03;;;3.51;73.71
21300;BME280;10809;49.476;11.016;2022-12-04T10:31:53;97949.34;;;3.53;74.01
21300;BME280;10809;49.476;11.016;2022-12-04T10:34:27;97955.34;;;3.57;74.00
21300;BME280;10809;49.476;11.016;2022-12-04T10:37:00;97943.91;;;3.59;73.77
21300;BME280;10809;49.476;11.016;2022-12-04T10:39:41;97935.94;;;3.62;74.00
21300;BME280;10809;49.476;11.016;2022-12-04T10:42:25;97930.59;;;3.65;73.59
21300;BME280;10809;49.476;11.016;2022-12-04T10:44:57;97922.63;;;3.70;73.65
21300;BME280;10809;49.476;11.016;2022-12-04T10:47:27;97926.03;;;3.72;73.62
21300;BME280;10809;49.476;11.016;2022-12-04T10:50:01;97937.31;;;3.74;73.60
21300;BME280;10809;49.476;11.016;2022-12-04T10:52:32;97930.22;;;3.77;73.71
21300;BME280;10809;49.476;11.016;2022-12-04T10:55:03;97910.88;;;3.81;73.83
21300;BME280;10809;49.476;11.016;2022-12-04T10:57:37;97909.06;;;3.83;73.38
21300;BME280;10809;49.476;11.016;2022-12-04T11:03:00;97899.25;;;3.88;73.50
21300;BME280;10809;49.476;11.016;2022-12-04T11:05:34;97902.69;;;3.90;73.16
21300;BME280;10809;49.476;11.016;2022-12-04T11:08:06;97898.25;;;3.92;73.21
21300;BME280;10809;49.476;11.016;2022-12-04T11:10:42;97885.94;;;3.94;73.04
21300;BME280;10809;49.476;11.016;2022-12-04T11:13:15;97882.44;;;3.95;73.44
21300;BME280;10809;49.476;11.016;2022-12-04T11:15:56;97884.06;;;3.98;73.33
21300;BME280;10809;49.476;11.016;2022-12-04T11:18:29;97872.63;;;4.00;73.68
21300;BME280;10809;49.476;11.016;2022-12-04T11:21:06;97871.72;;;4.01;73.84
21300;BME280;10809;49.476;11.016;2022-12-04T11:23:44;97876.84;;;4.04;73.74
21300;BME280;10809;49.476;11.016;2022-12-04T11:26:17;97879.38;;;4.07;73.46
21300;BME280;10809;49.476;11.016;2022-12-04T11:28:59;97867.91;;;4.10;73.70
21300;BME280;10809;49.476;11.016;2022-12-04T11:31:31;97870.34;;;4.14;73.62
21300;BME280;10809;49.476;11.016;2022-12-04T11:34:07;97853.66;;;4.17;73.09
21300;BME280;10809;49.476;11.016;2022-12-04T11:36:39;97854.41;;;4.20;73.62
21300;BME280;10809;49.476;11.016;2022-12-04T11:39:38;97848.22;;;4.23;73.68
21300;BME280;10809;49.476;11.016;2022-12-04T11:45:00;97860.34;;;4.25;73.27
21300;BME280;10809;49.476;11.016;2022-12-04T11:47:32;97864.59;;;4.28;73.17
21300;BME280;10809;49.476;11.016;2022-12-04T11:58:43;97868.88;;;4.31;73.41
21300;BME280;10809;49.476;11.016;2022-12-04T12:01:40;97862.66;;;4.33;73.39
21300;BME280;10809;49.476;11.016;2022-12-04T12:04:30;97861.75;;;4.34;73.54
21300;BME280;10809;49.476;11.016;2022-12-04T12:10:19;97860.78;;;4.37;73.40
21300;BME280;10809;49.476;11.016;2022-12-04T12:13:34;97856.31;;;4.39;73.07
21300;BME280;10809;49.476;11.016;2022-12-04T12:19:25;97843.97;;;4.42;73.49
21300;BME280;10809;49.476;11.016;2022-12-04T12:22:13;97832.50;;;4.45;73.50
21300;BME280;10809;49.476;11.016;2022-12-04T12:30:22;97816.59;;;4.49;73.49
21300;BME280;10809;49.476;11.016;2022-12-04T12:38:25;97817.41;;;4.51;73.12
21300;BME280;10809;49.476;11.016;2022-12-04T12:41:13;97819.09;;;4.52;73.37
21300;BME280;10809;49.476;11.016;2022-12-04T12:43:51;97819.03;;;4.54;73.36
21300;BME280;10809;49.476;11.016;2022-12-04T12:46:28;97821.59;;;4.55;73.31
21300;BME280;10809;49.476;11.016;2022-12-04T12:49:03;97819.78;;;4.57;73.09
21300;BME280;10809;49.476;11.016;2022-12-04T12:51:58;97818.03;;;4.58;73.38
21300;BME280;10809;49.476;11.016;2022-12-04T12:57:13;97817.91;;;4.61;73.24
21300;BME280;10809;49.476;11.016;2022-12-04T13:02:40;97817.91;;;4.61;73.20
21300;BME280;10809;49.476;11.016;2022-12-04T13:05:16;97821.28;;;4.63;73.40
21300;BME280;10809;49.476;11.016;2022-12-04T13:10:42;97808.13;;;4.64;73.60
21300;BME280;10809;49.476;11.016;2022-12-04T13:13:20;97802.81;;;4.66;73.34
21300;BME280;10809;49.476;11.016;2022-12-04T13:16:08;97797.56;;;4.66;72.92
21300;BME280;10809;49.476;11.016;2022-12-04T13:18:48;97799.31;;;4.67;73.33
21300;BME280;10809;49.476;11.016;2022-12-04T13:24:10;97793.94;;;4.70;73.38
21300;BME280;10809;49.476;11.016;2022-12-04T13:26:52;97787.75;;;4.71;73.28
21300;BME280;10809;49.476;11.016;2022-12-04T13:32:31;97767.59;;;4.73;73.45
21300;BME280;10809;49.476;11.016;2022-12-04T13:35:34;97775.38;;;4.74;73.18
21300;BME280;10809;49.476;11.016;2022-12-04T13:38:44;97774.41;;;4.77;73.13
21300;BME280;10809;49.476;11.016;2022-12-04T13:41:23;97783.06;;;4.79;73.01
21300;BME280;10809;49.476;11.016;2022-12-04T13:43:55;97782.19;;;4.78;73.53
21300;BME280;10809;49.476;11.016;2022-12-04T13:46:47;97779.59;;;4.78;73.42
21300;BME280;10809;49.476;11.016;2022-12-04T13:51:49;97780.44;;;4.79;73.23
21300;BME280;10809;49.476;11.016;2022-12-04T13:54:26;97769.03;;;4.80;73.20
21300;BME280;10809;49.476;11.016;2022-12-04T13:57:17;97765.50;;;4.81;73.19
21300;BME280;10809;49.476;11.016;2022-12-04T14:00:02;97765.50;;;4.81;73.39
21300;BME280;10809;49.476;11.016;2022-12-04T14:02:48;97765.50;;;4.81;73.16
21300;BME280;10809;49.476;11.016;2022-12-04T14:05:39;97760.28;;;4.81;73.13
21300;BME280;10809;49.476;11.016;2022-12-04T14:08:24;97754.09;;;4.82;72.93
21300;BME280;10809;49.476;11.016;2022-12-04T14:11:07;97759.34;;;4.82;72.78
21300;BME280;10809;49.476;11.016;2022-12-04T14:18:54;97768.19;;;4.79;73.10
21300;BME280;10809;49.476;11.016;2022-12-04T14:21:37;97768.19;;;4.79;73.04
21300;BME280;10809;49.476;11.016;2022-12-04T14:24:28;97759.47;;;4.79;72.82
21300;BME280;10809;49.476;11.016;2022-12-04T14:27:01;97757.72;;;4.79;72.67
21300;BME280;10809;49.476;11.016;2022-12-04T14:29:55;97765.66;;;4.78;72.66
21300;BME280;10809;49.476;11.016;2022-12-04T14:32:31;97755.16;;;4.78;72.86
21300;BME280;10809;49.476;11.016;2022-12-04T14:35:03;97766.53;;;4.77;72.98
21300;BME280;10809;49.476;11.016;2022-12-04T14:37:36;97768.31;;;4.76;72.89
21300;BME280;10809;49.476;11.016;2022-12-04T14:40:29;97767.53;;;4.74;72.99
21300;BME280;10809;49.476;11.016;2022-12-04T14:43:01;97769.28;;;4.74;72.92
21300;BME280;10809;49.476;11.016;2022-12-04T14:51:16;97771.13;;;4.72;73.02
21300;BME280;10809;49.476;11.016;2022-12-04T14:59:38;97765.97;;;4.70;73.16
21300;BME280;10809;49.476;11.016;2022-12-04T15:02:17;97767.72;;;4.70;73.33
21300;BME280;10809;49.476;11.016;2022-12-04T15:04:49;97768.59;;;4.69;73.28
21300;BME280;10809;49.476;11.016;2022-12-04T15:07:26;97766.84;;;4.69;73.33
21300;BME280;10809;49.476;11.016;2022-12-04T15:09:59;97774.78;;;4.68;73.05
21300;BME280;10809;49.476;11.016;2022-12-04T15:12:53;97776.47;;;4.69;73.11
21300;BME280;10809;49.476;11.016;2022-12-04T15:15:26;97782.59;;;4.69;73.56
21300;BME280;10809;49.476;11.016;2022-12-04T15:18:03;97773.91;;;4.67;73.39
21300;BME280;10809;49.476;11.016;2022-12-04T15:20:40;97786.06;;;4.70;73.16
21300;BME280;10809;49.476;11.016;2022-12-04T15:23:14;97786.13;;;4.68;73.30
21300;BME280;10809;49.476;11.016;2022-12-04T15:25:54;97786.13;;;4.68;73.36
21300;BME280;10809;49.476;11.016;2022-12-04T15:28:29;97788.75;;;4.68;73.53
21300;BME280;10809;49.476;11.016;2022-12-04T15:31:03;97788.75;;;4.68;73.63